createdAt,value
2023-07-27T00:01:01.300Z,9.65
2023-07-27T00:03:29.019Z,9.15
2023-07-27T00:06:00.605Z,9.50
2023-07-27T00:08:28.504Z,7.85
2023-07-27T00:10:57.924Z,10.15
2023-07-27T00:13:25.543Z,9.75
2023-07-27T00:15:53.072Z,8.38
2023-07-27T00:18:23.630Z,10.80
2023-07-27T00:20:50.903Z,9.20
2023-07-27T00:23:18.160Z,8.70
2023-07-27T00:25:45.392Z,7.68
2023-07-27T00:28:15.541Z,7.45
2023-07-27T00:30:42.795Z,11.55
2023-07-27T00:33:12.044Z,8.00
2023-07-27T00:35:44.665Z,10.50
2023-07-27T00:38:11.876Z,10.45
2023-07-27T00:40:40.212Z,8.70
2023-07-27T00:43:08.831Z,7.18
2023-07-27T00:45:36.227Z,8.07
2023-07-27T00:48:05.825Z,8.18
2023-07-27T00:50:39.693Z,10.05
2023-07-27T00:53:14.315Z,11.00
2023-07-27T00:55:48.873Z,6.80
2023-07-27T00:58:16.437Z,9.52
2023-07-27T01:00:44.258Z,10.10
2023-07-27T01:03:14.263Z,13.70
2023-07-27T01:05:44.026Z,11.35
2023-07-27T01:08:14.547Z,10.90
2023-07-27T01:10:55.499Z,9.57
2023-07-27T01:13:48.246Z,12.65
2023-07-27T01:16:23.498Z,16.45
2023-07-27T01:19:03.289Z,10.15
2023-07-27T01:21:38.420Z,9.57
2023-07-27T01:24:24.621Z,6.78
2023-07-27T01:27:21.099Z,7.55
2023-07-27T01:30:04.053Z,8.40
2023-07-27T01:32:37.195Z,8.13
2023-07-27T01:35:10.951Z,8.38
2023-07-27T01:37:41.460Z,7.03
2023-07-27T01:40:12.245Z,7.85
2023-07-27T01:42:40.790Z,9.38
2023-07-27T01:45:12.371Z,10.25
2023-07-27T01:47:43.214Z,8.40
2023-07-27T01:50:13.171Z,6.68
2023-07-27T01:52:41.690Z,8.98
2023-07-27T01:55:09.912Z,14.80
2023-07-27T01:57:37.936Z,9.02
2023-07-27T02:00:07.184Z,7.55
2023-07-27T02:02:43.462Z,6.95
2023-07-27T02:05:12.529Z,5.22
2023-07-27T02:07:40.742Z,8.50
2023-07-27T02:10:11.808Z,7.35
2023-07-27T02:12:46.109Z,8.30
2023-07-27T02:15:19.099Z,12.73
2023-07-27T02:17:51.172Z,9.35
2023-07-27T02:20:21.194Z,6.60
2023-07-27T02:22:49.233Z,7.63
2023-07-27T02:25:16.659Z,7.88
2023-07-27T02:27:46.434Z,10.43
2023-07-27T02:30:15.027Z,11.32
2023-07-27T02:32:42.520Z,6.35
2023-07-27T02:35:10.694Z,7.10
2023-07-27T02:37:38.410Z,5.75
2023-07-27T02:40:06.701Z,8.45
2023-07-27T02:42:34.699Z,8.50
2023-07-27T02:45:01.950Z,5.70
2023-07-27T02:47:34.842Z,9.23
2023-07-27T02:50:02.115Z,8.32
2023-07-27T02:52:33.258Z,6.55
2023-07-27T02:55:04.609Z,9.75
2023-07-27T02:57:34.135Z,9.45
2023-07-27T03:00:01.961Z,10.38
2023-07-27T03:02:31.857Z,8.32
2023-07-27T03:05:04.917Z,11.25
2023-07-27T03:07:32.195Z,5.97
2023-07-27T03:09:59.858Z,6.43
2023-07-27T03:12:27.074Z,5.30
2023-07-27T03:14:54.463Z,5.10
2023-07-27T03:17:24.177Z,5.25
2023-07-27T03:19:51.488Z,10.20
2023-07-27T03:22:18.895Z,6.05
2023-07-27T03:24:46.986Z,5.13
2023-07-27T03:27:14.327Z,5.65
2023-07-27T03:29:42.221Z,11.07
2023-07-27T03:32:11.322Z,5.72
2023-07-27T03:34:39.116Z,6.75
2023-07-27T03:37:07.099Z,7.28
2023-07-27T03:39:34.389Z,10.65
2023-07-27T03:42:01.789Z,6.50
2023-07-27T03:44:30.165Z,5.18
2023-07-27T03:46:57.444Z,9.93
2023-07-27T03:49:24.706Z,6.68
2023-07-27T03:51:52.306Z,6.05
2023-07-27T03:54:20.764Z,5.78
2023-07-27T03:56:48.023Z,4.45
2023-07-27T03:59:15.242Z,6.28
2023-07-27T04:01:43.038Z,4.93
2023-07-27T04:04:10.375Z,8.05
2023-07-27T04:06:38.811Z,8.52
2023-07-27T04:09:06.172Z,7.35
2023-07-27T04:11:34.758Z,5.63
2023-07-27T04:14:03.785Z,7.22
2023-07-27T04:16:33.356Z,8.18
2023-07-27T04:19:00.856Z,5.15
2023-07-27T04:21:28.566Z,6.85
2023-07-27T04:23:55.945Z,3.95
2023-07-27T04:26:23.346Z,5.95
2023-07-27T04:28:50.788Z,7.80
2023-07-27T04:31:18.274Z,8.20
2023-07-27T04:33:45.651Z,6.13
2023-07-27T04:36:12.925Z,5.45
2023-07-27T04:38:40.077Z,4.90
2023-07-27T04:41:08.450Z,5.38
2023-07-27T04:43:35.834Z,4.13
2023-07-27T04:46:04.707Z,5.95
2023-07-27T04:48:32.752Z,4.63
2023-07-27T04:51:01.557Z,5.32
2023-07-27T04:53:28.704Z,5.68
2023-07-27T04:55:56.023Z,5.15
2023-07-27T04:58:23.997Z,8.88
2023-07-27T05:00:55.625Z,5.47
2023-07-27T05:03:23.059Z,6.43
2023-07-27T05:05:54.713Z,8.40
2023-07-27T05:08:23.326Z,4.20
2023-07-27T05:10:50.765Z,7.03
2023-07-27T05:13:19.421Z,6.03
2023-07-27T05:15:47.746Z,5.40
2023-07-27T05:18:16.001Z,6.15
2023-07-27T05:20:45.007Z,4.85
2023-07-27T05:23:12.379Z,3.90
2023-07-27T05:25:39.541Z,6.07
2023-07-27T05:28:06.745Z,4.55
2023-07-27T05:30:34.314Z,7.57
2023-07-27T05:33:02.357Z,9.35
2023-07-27T05:35:31.202Z,7.53
2023-07-27T05:37:58.373Z,6.20
2023-07-27T05:40:25.565Z,4.25
2023-07-27T05:42:52.791Z,4.70
2023-07-27T05:45:20.151Z,4.85
2023-07-27T05:47:47.402Z,6.68
2023-07-27T05:50:15.133Z,4.13
2023-07-27T05:52:42.554Z,5.10
2023-07-27T05:55:10.311Z,4.70
2023-07-27T05:57:37.739Z,4.30
2023-07-27T06:00:07.245Z,6.10
2023-07-27T06:02:35.747Z,5.35
2023-07-27T06:05:03.638Z,5.22
2023-07-27T06:07:31.087Z,5.50
2023-07-27T06:09:58.228Z,7.43
2023-07-27T06:12:25.806Z,4.22
2023-07-27T06:14:53.196Z,4.22
2023-07-27T06:17:20.677Z,6.07
2023-07-27T06:19:48.193Z,4.60
2023-07-27T06:22:15.413Z,4.35
2023-07-27T06:24:42.741Z,6.30
2023-07-27T06:27:10.190Z,5.63
2023-07-27T06:29:37.699Z,5.50
2023-07-27T06:32:05.563Z,6.03
2023-07-27T06:34:32.864Z,6.60
2023-07-27T06:37:00.089Z,4.07
2023-07-27T06:39:27.349Z,6.00
2023-07-27T06:41:55.429Z,6.75
2023-07-27T06:44:30.040Z,7.55
2023-07-27T06:46:57.405Z,3.95
2023-07-27T06:49:25.442Z,4.50
2023-07-27T06:51:52.553Z,11.27
2023-07-27T06:54:20.052Z,4.95
2023-07-27T06:56:47.810Z,7.10
2023-07-27T06:59:15.056Z,4.97
2023-07-27T07:01:44.396Z,6.80
2023-07-27T07:04:11.743Z,9.18
2023-07-27T07:06:38.993Z,10.35
2023-07-27T07:09:06.738Z,6.03
2023-07-27T07:11:34.248Z,8.40
2023-07-27T07:14:02.302Z,8.57
2023-07-27T07:16:29.787Z,6.68
2023-07-27T07:18:57.611Z,5.22
2023-07-27T07:21:24.928Z,7.75
2023-07-27T07:23:52.112Z,5.60
2023-07-27T07:26:19.555Z,5.68
2023-07-27T07:28:46.960Z,7.55
2023-07-27T07:31:14.912Z,6.32
2023-07-27T07:33:42.336Z,8.60
2023-07-27T07:36:09.443Z,5.75
2023-07-27T07:38:37.305Z,5.45
2023-07-27T07:41:05.995Z,7.38
2023-07-27T07:43:36.045Z,6.28
2023-07-27T07:46:03.329Z,5.50
2023-07-27T07:48:30.690Z,7.55
2023-07-27T07:50:58.139Z,6.60
2023-07-27T07:53:34.883Z,9.07
2023-07-27T07:56:04.013Z,5.82
2023-07-27T07:58:31.759Z,4.53
2023-07-27T08:00:59.101Z,6.65
2023-07-27T08:03:26.554Z,10.13
2023-07-27T08:05:53.895Z,6.78
2023-07-27T08:08:21.056Z,4.40
2023-07-27T08:10:48.889Z,11.40
2023-07-27T08:13:16.102Z,7.78
2023-07-27T08:15:56.206Z,5.63
2023-07-27T08:18:24.058Z,5.53
2023-07-27T08:21:04.645Z,6.80
2023-07-27T08:23:33.147Z,5.20
2023-07-27T08:26:08.990Z,4.20
2023-07-27T08:28:36.544Z,5.63
2023-07-27T08:31:07.078Z,6.85
2023-07-27T08:33:34.439Z,8.02
2023-07-27T08:36:02.801Z,6.75
2023-07-27T08:38:30.532Z,8.85
2023-07-27T08:40:59.287Z,11.05
2023-07-27T08:43:27.328Z,5.80
2023-07-27T08:45:56.020Z,9.35
2023-07-27T08:48:25.550Z,6.18
2023-07-27T08:50:54.821Z,3.70
2023-07-27T08:53:22.206Z,6.95
2023-07-27T08:55:49.438Z,5.85
2023-07-27T08:58:17.148Z,5.45
2023-07-27T09:00:44.958Z,4.85
2023-07-27T09:03:13.023Z,5.43
2023-07-27T09:05:43.344Z,9.48
2023-07-27T09:08:13.503Z,4.53
2023-07-27T09:10:44.436Z,12.45
2023-07-27T09:13:11.875Z,4.15
2023-07-27T09:15:44.216Z,8.50
2023-07-27T09:18:14.650Z,7.13
2023-07-27T09:20:42.601Z,8.60
2023-07-27T09:23:10.158Z,8.80
2023-07-27T09:25:41.555Z,5.07
2023-07-27T09:28:09.333Z,12.00
2023-07-27T09:30:45.078Z,8.65
2023-07-27T09:33:12.326Z,9.88
2023-07-27T09:35:40.038Z,6.93
2023-07-27T09:38:07.584Z,5.53
2023-07-27T09:40:35.330Z,6.35
2023-07-27T09:43:10.491Z,15.05
2023-07-27T09:45:39.777Z,8.23
2023-07-27T09:48:08.969Z,7.60
2023-07-27T09:50:37.588Z,5.38
2023-07-27T09:53:06.780Z,6.80
2023-07-27T09:55:34.591Z,11.35
2023-07-27T09:58:02.211Z,5.57
2023-07-27T10:00:31.383Z,11.23
2023-07-27T10:03:09.160Z,7.00
2023-07-27T10:05:42.281Z,5.90
2023-07-27T10:08:10.676Z,8.52
2023-07-27T10:10:43.684Z,9.52
2023-07-27T10:13:36.560Z,5.28
2023-07-27T10:16:04.272Z,5.32
2023-07-27T10:18:33.366Z,10.77
2023-07-27T10:21:35.414Z,8.07
2023-07-27T10:24:05.192Z,5.05
2023-07-27T10:26:54.051Z,6.00
2023-07-27T10:29:25.895Z,10.18
2023-07-27T10:32:15.580Z,8.15
2023-07-27T10:34:42.989Z,7.75
2023-07-27T10:37:12.242Z,7.43
2023-07-27T10:39:49.224Z,8.25
2023-07-27T10:42:24.025Z,9.73
2023-07-27T10:47:33.447Z,6.72
2023-07-27T10:50:01.867Z,7.70
2023-07-27T10:52:41.096Z,7.00
2023-07-27T10:55:08.698Z,11.07
2023-07-27T10:57:37.063Z,13.50
2023-07-27T11:00:05.761Z,6.97
2023-07-27T11:02:34.819Z,10.60
2023-07-27T11:05:07.533Z,6.13
2023-07-27T11:07:44.307Z,5.72
2023-07-27T11:10:14.132Z,7.43
2023-07-27T11:12:53.976Z,6.68
2023-07-27T11:15:25.124Z,12.25
2023-07-27T11:17:55.317Z,6.53
2023-07-27T11:20:27.908Z,7.65
2023-07-27T11:22:58.783Z,15.35
2023-07-27T11:25:26.980Z,12.57
2023-07-27T11:27:55.193Z,10.35
2023-07-27T11:30:23.704Z,7.13
2023-07-27T11:33:04.690Z,9.18
2023-07-27T11:35:32.684Z,10.68
2023-07-27T11:38:01.130Z,9.18
2023-07-27T11:40:28.403Z,6.30
2023-07-27T11:42:57.435Z,8.73
2023-07-27T11:45:26.007Z,7.80
2023-07-27T11:47:54.431Z,7.28
2023-07-27T11:50:22.567Z,6.82
2023-07-27T11:52:52.402Z,10.05
2023-07-27T11:55:19.806Z,5.90
2023-07-27T11:57:53.251Z,7.45
2023-07-27T12:00:20.870Z,8.05
2023-07-27T12:02:50.054Z,9.63
2023-07-27T12:05:20.907Z,12.77
2023-07-27T12:10:30.570Z,6.93
2023-07-27T12:15:35.494Z,7.50
2023-07-27T12:18:04.794Z,10.80
2023-07-27T12:30:35.261Z,6.45
2023-07-27T12:33:02.688Z,13.70
2023-07-27T12:35:30.383Z,8.57
2023-07-27T12:38:47.519Z,11.15
2023-07-27T12:43:18.289Z,8.30
2023-07-27T12:45:45.881Z,7.70
2023-07-27T12:48:13.475Z,8.68
2023-07-27T12:50:42.537Z,8.13
2023-07-27T12:53:09.724Z,10.70
2023-07-27T12:55:37.987Z,7.75
2023-07-27T12:58:05.227Z,9.60
2023-07-27T13:00:32.573Z,9.13
2023-07-27T13:03:00.194Z,9.05
2023-07-27T13:05:27.611Z,14.20
2023-07-27T13:07:54.807Z,9.63
2023-07-27T13:10:22.166Z,9.45
2023-07-27T13:12:49.481Z,10.68
2023-07-27T13:15:18.443Z,7.93
2023-07-27T13:17:47.587Z,13.18
2023-07-27T13:20:15.208Z,9.35
2023-07-27T13:22:43.377Z,5.50
2023-07-27T13:25:10.748Z,5.22
2023-07-27T13:27:38.070Z,8.32
2023-07-27T13:30:06.254Z,8.38
2023-07-27T13:32:34.056Z,6.95
2023-07-27T13:35:02.171Z,8.45
2023-07-27T13:37:31.610Z,9.20
2023-07-27T13:39:58.815Z,4.18
2023-07-27T13:42:26.883Z,6.28
2023-07-27T13:44:54.365Z,8.98
2023-07-27T13:47:21.722Z,5.97
2023-07-27T13:49:49.149Z,10.95
2023-07-27T13:52:18.557Z,16.50
2023-07-27T13:54:45.797Z,6.50
2023-07-27T13:57:13.054Z,6.43
2023-07-27T13:59:40.364Z,6.03
2023-07-27T14:02:07.794Z,11.70
2023-07-27T14:04:35.028Z,11.18
2023-07-27T14:07:03.171Z,11.18
2023-07-27T14:09:30.893Z,6.45
2023-07-27T14:11:58.495Z,15.48
2023-07-27T14:14:25.972Z,9.13
2023-07-27T14:16:53.186Z,11.50
2023-07-27T14:19:20.470Z,14.98
2023-07-27T14:21:47.747Z,6.93
2023-07-27T14:24:14.882Z,10.60
2023-07-27T14:26:42.130Z,8.95
2023-07-27T14:29:09.730Z,10.95
2023-07-27T14:31:37.162Z,8.00
2023-07-27T14:34:04.928Z,10.43
2023-07-27T14:36:32.452Z,8.73
2023-07-27T14:41:29.947Z,5.88
2023-07-27T14:43:57.178Z,12.65
2023-07-27T14:46:24.492Z,7.63
2023-07-27T14:48:51.616Z,9.35
2023-07-27T14:51:19.081Z,7.18
2023-07-27T14:53:47.436Z,9.02
2023-07-27T14:56:17.981Z,5.50
2023-07-27T14:58:47.810Z,8.70
2023-07-27T15:01:15.524Z,8.35
2023-07-27T15:03:52.001Z,9.05
2023-07-27T15:06:20.820Z,7.65
2023-07-27T15:08:48.230Z,7.35
2023-07-27T15:13:45.991Z,8.73
2023-07-27T15:16:13.316Z,6.82
2023-07-27T15:18:41.170Z,10.85
2023-07-27T15:21:08.306Z,7.45
2023-07-27T15:23:35.602Z,10.05
2023-07-27T15:26:05.095Z,11.35
2023-07-27T15:28:34.979Z,10.50
2023-07-27T15:31:06.834Z,7.10
2023-07-27T15:33:35.525Z,7.18
2023-07-27T15:36:02.796Z,9.77
2023-07-27T15:38:30.005Z,10.43
2023-07-27T15:40:57.332Z,8.95
2023-07-27T15:43:24.859Z,9.73
2023-07-27T15:45:52.302Z,7.20
2023-07-27T15:48:22.279Z,9.73
2023-07-27T15:50:49.531Z,9.95
2023-07-27T15:53:17.192Z,9.07
2023-07-27T15:55:44.444Z,8.25
2023-07-27T15:58:12.623Z,11.68
2023-07-27T16:00:40.704Z,6.72
2023-07-27T16:03:08.406Z,9.65
2023-07-27T16:05:41.744Z,12.27
2023-07-27T16:08:09.073Z,7.07
2023-07-27T16:10:36.251Z,10.05
2023-07-27T16:13:03.888Z,10.70
2023-07-27T16:15:31.329Z,10.32
2023-07-27T16:17:58.757Z,10.40
2023-07-27T16:20:26.107Z,11.73
2023-07-27T16:22:53.916Z,9.13
2023-07-27T16:25:24.857Z,8.95
2023-07-27T16:27:55.232Z,9.55
2023-07-27T16:30:22.916Z,9.32
2023-07-27T16:32:50.798Z,12.15
2023-07-27T16:35:18.203Z,9.77
2023-07-27T16:37:46.491Z,7.88
2023-07-27T16:40:14.400Z,12.40
2023-07-27T16:42:41.665Z,9.80
2023-07-27T16:45:09.607Z,10.07
2023-07-27T16:47:36.833Z,12.00
2023-07-27T16:50:04.143Z,8.68
2023-07-27T16:52:31.290Z,9.63
2023-07-27T16:54:58.572Z,10.20
2023-07-27T16:57:26.149Z,8.85
2023-07-27T16:59:53.451Z,9.85
2023-07-27T17:02:21.013Z,11.52
2023-07-27T17:04:53.277Z,11.23
2023-07-27T17:07:20.929Z,16.80
2023-07-27T17:09:50.915Z,9.02
2023-07-27T17:12:18.685Z,13.27
2023-07-27T17:14:46.766Z,10.43
2023-07-27T17:17:14.001Z,12.27
2023-07-27T17:19:41.422Z,14.88
2023-07-27T17:22:08.867Z,12.40
2023-07-27T17:24:36.147Z,9.05
2023-07-27T17:27:03.650Z,6.88
2023-07-27T17:29:31.281Z,10.60
2023-07-27T17:31:59.351Z,10.55
2023-07-27T17:34:29.772Z,9.40
2023-07-27T17:36:59.167Z,4.55
2023-07-27T17:39:26.587Z,13.50
2023-07-27T17:41:54.503Z,10.95
2023-07-27T17:44:21.801Z,10.10
2023-07-27T17:46:48.940Z,9.48
2023-07-27T17:49:16.130Z,23.52
2023-07-27T17:51:43.378Z,11.27
2023-07-27T17:54:11.417Z,11.15
2023-07-27T17:56:38.604Z,10.02
2023-07-27T17:59:05.998Z,9.50
2023-07-27T18:01:34.186Z,9.90
2023-07-27T18:04:02.146Z,9.43
2023-07-27T18:06:29.587Z,10.98
2023-07-27T18:08:56.898Z,20.83
2023-07-27T18:11:24.047Z,10.95
2023-07-27T18:13:51.279Z,8.70
2023-07-27T18:16:18.676Z,9.23
2023-07-27T18:18:45.987Z,7.25
2023-07-27T18:21:16.861Z,8.50
2023-07-27T18:23:45.703Z,7.38
2023-07-27T18:26:20.806Z,15.82
2023-07-27T18:28:50.767Z,14.75
2023-07-27T18:31:21.561Z,12.02
2023-07-27T18:33:52.359Z,11.38
2023-07-27T18:36:25.035Z,8.80
2023-07-27T18:38:52.258Z,8.10
2023-07-27T18:41:21.081Z,14.82
2023-07-27T18:43:49.106Z,8.77
2023-07-27T18:46:23.690Z,9.55
2023-07-27T18:48:51.348Z,12.25
2023-07-27T18:51:20.416Z,8.52
2023-07-27T18:53:47.761Z,13.50
2023-07-27T18:56:15.089Z,9.82
2023-07-27T18:58:43.246Z,12.45
2023-07-27T19:01:10.540Z,10.77
2023-07-27T19:03:38.849Z,6.72
2023-07-27T19:06:07.621Z,9.55
2023-07-27T19:08:34.839Z,13.80
2023-07-27T19:11:05.717Z,13.77
2023-07-27T19:13:33.497Z,10.40
2023-07-27T19:16:02.515Z,17.08
2023-07-27T19:18:29.839Z,14.60
2023-07-27T19:20:57.965Z,18.58
2023-07-27T19:23:25.323Z,11.95
2023-07-27T19:25:53.673Z,20.27
2023-07-27T19:28:22.895Z,8.75
2023-07-27T19:30:50.574Z,17.52
2023-07-27T19:33:18.415Z,12.35
2023-07-27T19:35:52.928Z,12.00
2023-07-27T19:38:22.951Z,20.25
2023-07-27T19:40:50.618Z,14.00
2023-07-27T19:43:20.058Z,21.63
2023-07-27T19:45:51.854Z,12.20
2023-07-27T19:48:20.349Z,14.85
2023-07-27T19:50:52.508Z,16.33
2023-07-27T19:53:20.922Z,19.67
2023-07-27T19:56:00.520Z,15.38
2023-07-27T19:58:31.523Z,10.65
2023-07-27T20:01:01.073Z,13.63
2023-07-27T20:03:31.000Z,11.13
2023-07-27T20:06:01.784Z,16.63
2023-07-27T20:11:16.591Z,11.70
2023-07-27T20:13:52.993Z,11.55
2023-07-27T20:16:20.452Z,11.77
2023-07-27T20:18:52.528Z,16.45
2023-07-27T20:21:19.941Z,12.95
2023-07-27T20:23:49.760Z,23.10
2023-07-27T20:26:16.956Z,19.75
2023-07-27T20:28:47.771Z,16.58
2023-07-27T20:31:15.600Z,17.83
2023-07-27T20:33:44.522Z,15.25
2023-07-27T20:36:13.072Z,12.23
2023-07-27T20:38:42.534Z,22.63
2023-07-27T20:41:13.014Z,15.50
2023-07-27T20:43:40.632Z,23.33
2023-07-27T20:46:08.013Z,15.90
2023-07-27T20:48:37.420Z,18.38
2023-07-27T20:51:06.121Z,16.13
2023-07-27T20:53:38.049Z,16.98
2023-07-27T20:56:12.552Z,19.77
2023-07-27T20:58:43.241Z,23.08
2023-07-27T21:01:11.579Z,13.13
2023-07-27T21:03:40.907Z,24.98
2023-07-27T21:06:11.539Z,17.40
2023-07-27T21:08:42.793Z,19.63
2023-07-27T21:11:13.484Z,17.27
2023-07-27T21:13:40.788Z,15.75
2023-07-27T21:16:12.555Z,18.13
2023-07-27T21:18:44.882Z,19.58
2023-07-27T21:21:17.975Z,17.42
2023-07-27T21:23:49.242Z,20.17
2023-07-27T21:26:20.556Z,24.52
2023-07-27T21:28:48.770Z,19.23
2023-07-27T21:31:19.091Z,17.40
2023-07-27T21:33:46.369Z,22.23
2023-07-27T21:36:15.722Z,20.63
2023-07-27T21:38:45.382Z,20.48
2023-07-27T21:41:16.458Z,16.33
2023-07-27T21:43:46.413Z,25.40
2023-07-27T21:46:16.566Z,16.25
2023-07-27T21:48:44.720Z,17.77
2023-07-27T21:51:14.559Z,16.38
2023-07-27T21:53:42.839Z,22.20
2023-07-27T21:56:11.135Z,26.25
2023-07-27T21:58:41.743Z,15.30
2023-07-27T22:01:15.042Z,18.08
2023-07-27T22:03:42.501Z,16.92
2023-07-27T22:06:15.411Z,23.85
2023-07-27T22:08:42.643Z,24.27
2023-07-27T22:11:13.029Z,16.85
2023-07-27T22:13:40.681Z,16.83
2023-07-27T22:16:10.774Z,21.00
2023-07-27T22:18:38.353Z,23.58
2023-07-27T22:21:12.081Z,17.25
2023-07-27T22:26:09.370Z,26.42
2023-07-27T22:28:37.501Z,18.98
2023-07-27T22:31:10.499Z,16.73
2023-07-27T22:33:38.583Z,17.30
2023-07-27T22:36:09.383Z,21.73
2023-07-27T22:38:39.842Z,16.80
2023-07-27T22:41:08.231Z,18.17
2023-07-27T22:43:35.385Z,17.67
2023-07-27T22:46:03.994Z,18.77
2023-07-27T22:48:33.852Z,22.33
2023-07-27T22:51:02.323Z,14.77
2023-07-27T22:53:29.601Z,24.65
2023-07-27T22:56:01.734Z,20.17
2023-07-27T22:58:28.994Z,20.48
2023-07-27T23:00:57.248Z,19.67
2023-07-27T23:03:25.419Z,17.27
2023-07-27T23:05:53.399Z,15.32
2023-07-27T23:08:20.908Z,21.98
2023-07-27T23:10:55.804Z,24.45
2023-07-27T23:13:23.158Z,20.73
2023-07-27T23:15:56.784Z,14.80
2023-07-27T23:18:24.096Z,16.10
2023-07-27T23:20:58.056Z,29.42
2023-07-27T23:23:30.461Z,19.05
2023-07-27T23:25:57.774Z,18.30
2023-07-27T23:28:27.587Z,21.08
2023-07-27T23:31:01.183Z,25.35
2023-07-27T23:33:28.734Z,19.42
2023-07-27T23:35:57.734Z,18.42
2023-07-27T23:38:25.244Z,15.70
2023-07-27T23:40:53.526Z,17.65
2023-07-27T23:43:23.448Z,18.58
2023-07-27T23:45:50.804Z,20.35
2023-07-27T23:48:19.730Z,17.17
2023-07-27T23:50:47.062Z,21.63
2023-07-27T23:53:14.867Z,16.95
2023-07-27T23:55:42.377Z,16.58
2023-07-27T23:58:09.628Z,23.13
